Grapeland, TX

12:15 PM CST on March 06, 2015 (GMT -0600)
MesoWest SALMON TX US UPR | Change Station
CLOSE
Current Station
Personal Weather Station
Location: Slocum, TX
Elevation: 461 ft
Nearby Weather Stations
Active Advisory: Flood Warning Active Notice: Record Report

Elev 461 ft 31.59 °N, 95.52 °W | Updated 2 hours ago

Clear
Clear
43 °F
Feels Like 43 °F
N
Wind Variable Wind from North
Gusts 0.0 mph

Today
High -- | Low -- °F
--% Chance of Precip.
Yesterday
High -- | Low -- °F
Precip. -- in
6:43 AM 6:23 PM
Full, 99% visible
Pressure 30.61 in
Visibility 10.0 miles
Clouds Clear
Windchill 43 °F
Dew Point Not available.
Humidity Not available.
Rainfall in
Snow Depth Not available.
UV 8 out of 12
Pollen 6.80 out of 12
Air Quality Not available.
Flu Activity Not available.
METAR KPSN 061755Z AUTO 00000KT 10SM CLR 07/M07 A3061 RMK AO2 T00781074

More Conditions Fewer Conditions

Pressure 30.61 in
Visibility 10.0 miles
Clouds Clear
Windchill 43 °F
Dew Point Not available.
Humidity Not available.
Rainfall in
Snow Depth Not available.
UV 8 out of 12
Pollen 6.80 out of 12
Air Quality Not available.
Flu Activity Not available.
METAR KPSN 061755Z AUTO 00000KT 10SM CLR 07/M07 A3061 RMK AO2 T00781074

More Conditions Fewer Conditions

10-Day Weather Forecast

Almanac

Astronomy

Mar. 06, 2015 Rise Set
Actual Time
Civil Twilight
Nautical Twilight
Astronomical Twilight
Moon
Length of Visible Light
Length of Day
Tomorrow will be .
, % of the Moon is Illuminated

Today's Extremes

State Highs State Lows

Community

WunderPhotos

Upload Photos

1,803,357 photos uploaded!

WunderBlogs® & News

Nearby

Air Quality

  Air Quality AQ Index Pollutant
Not available.

Snow Depth

Station Depth Elevation

Earthquake Activity

City Distance Mag. Time & Date
Minimum magnitude displayed is 2.5.

Coastal Water Temperatures

Place Temperature

Nearby Weather Stations

Flood Warning
Statement as of 7:56 AM CST on March 06, 2015

The National Weather Service in Shreveport has issued a

* Flood Warning for
the Neches River near Neches Texas.
* Until late Saturday night... or until the warning is cancelled.
* At 730 am Friday the stage was 12.2 feet.
* Minor flooding is occurring and minor flooding is forecast.
* Flood stage is 12 feet.
* Forecast... the river will continue rising to near 12.3 feet by this
Friday afternoon. The river will fall below flood stage by late
Saturday morning.
* Impact... minor lowland flooding.


Lat... Lon 3205 9551 3167 9524 3166 9537 3180 9544 3188 9548